ロメ の空港の天気 - METARとTAF

ロメ空港 ( DXXX / LFW ) - トーゴ ロメ
飛行場実況気象(Metar)
観測時間12/14 06:00 GMT (12/14 06:00 UTC)
風向・風速北 2m/s
視程4500m
天気現象もや
少しの雲 雲底高度 300m
気温25℃
湿度94%
気圧1014hPa
METARDXXX 140600Z 36004KT 4500 BR FEW010 25/24 Q1014 NOSIG
過去の天気等 Google飛行場航空写真 Wunderground天気予報

過去48時間のMETAR

飛行場予報(TAF)
発表時間: 12/14 05:00 GMT (12/14 05:00 UTC)
予報対象時間: 14日6時 GMT ~ 15日12時 GMT
風向・風速不定 2m/s
視程8000m
少しの雲 雲底高度 370m
14日6時 GMT ~ 14日9時 GMT に一時的に
視程3500m
天気現象もや
14日12時 GMT ~ 14日14時 GMT に徐々に
風向・風速南 5m/s
14日22時 GMT ~ 14日24時 GMT に徐々に
風向・風速不定 2m/s
TAF DXXX 140500Z 1406/1512 VRB03KT 8000 FEW012
TEMPO 1406/1409 3500 BR
BECMG 1412/1414 18010KT
BECMG 1422/1424 VRB04KT